sensor_id;sensor_type;location;lat;lon;timestamp;P1;durP1;ratioP1;P2;durP2;ratioP2
20814;SDS011;10568;48.176;16.316;2023-05-07T00:00:37;1.07;;;0.97;;
20814;SDS011;10568;48.176;16.316;2023-05-07T00:03:03;3.30;;;1.00;;
20814;SDS011;10568;48.176;16.316;2023-05-07T00:05:28;1.83;;;1.00;;
20814;SDS011;10568;48.176;16.316;2023-05-07T00:07:54;1.43;;;1.00;;
20814;SDS011;10568;48.176;16.316;2023-05-07T00:10:20;1.17;;;1.00;;
20814;SDS011;10568;48.176;16.316;2023-05-07T00:12:46;1.10;;;0.90;;
20814;SDS011;10568;48.176;16.316;2023-05-07T00:15:12;1.40;;;1.30;;
20814;SDS011;10568;48.176;16.316;2023-05-07T00:17:38;1.57;;;1.17;;
20814;SDS011;10568;48.176;16.316;2023-05-07T00:20:04;1.10;;;1.00;;
20814;SDS011;10568;48.176;16.316;2023-05-07T00:22:32;0.97;;;0.87;;
20814;SDS011;10568;48.176;16.316;2023-05-07T00:24:58;2.10;;;1.07;;
20814;SDS011;10568;48.176;16.316;2023-05-07T00:27:24;1.10;;;1.00;;
20814;SDS011;10568;48.176;16.316;2023-05-07T00:29:50;1.37;;;1.10;;
20814;SDS011;10568;48.176;16.316;2023-05-07T00:32:16;1.20;;;1.10;;
20814;SDS011;10568;48.176;16.316;2023-05-07T00:34:42;1.20;;;0.93;;
20814;SDS011;10568;48.176;16.316;2023-05-07T00:37:08;0.90;;;0.80;;
20814;SDS011;10568;48.176;16.316;2023-05-07T00:39:34;1.40;;;1.13;;
20814;SDS011;10568;48.176;16.316;2023-05-07T00:42:01;4.07;;;1.17;;
20814;SDS011;10568;48.176;16.316;2023-05-07T00:44:28;0.80;;;0.77;;
20814;SDS011;10568;48.176;16.316;2023-05-07T00:46:54;2.07;;;1.07;;
20814;SDS011;10568;48.176;16.316;2023-05-07T00:49:23;1.20;;;1.00;;
20814;SDS011;10568;48.176;16.316;2023-05-07T00:51:58;1.10;;;1.00;;
20814;SDS011;10568;48.176;16.316;2023-05-07T00:54:25;1.13;;;1.00;;
20814;SDS011;10568;48.176;16.316;2023-05-07T00:56:57;1.27;;;1.00;;
20814;SDS011;10568;48.176;16.316;2023-05-07T00:59:23;0.80;;;0.80;;
20814;SDS011;10568;48.176;16.316;2023-05-07T01:01:49;1.30;;;0.87;;
20814;SDS011;10568;48.176;16.316;2023-05-07T01:04:15;1.03;;;0.80;;
20814;SDS011;10568;48.176;16.316;2023-05-07T01:06:40;1.50;;;0.90;;
20814;SDS011;10568;48.176;16.316;2023-05-07T01:09:07;1.83;;;1.20;;
20814;SDS011;10568;48.176;16.316;2023-05-07T01:11:34;1.80;;;1.13;;
20814;SDS011;10568;48.176;16.316;2023-05-07T01:14:00;1.80;;;1.20;;
20814;SDS011;10568;48.176;16.316;2023-05-07T01:16:26;0.80;;;0.80;;
20814;SDS011;10568;48.176;16.316;2023-05-07T01:18:52;1.27;;;1.00;;
20814;SDS011;10568;48.176;16.316;2023-05-07T01:21:18;1.17;;;0.93;;
20814;SDS011;10568;48.176;16.316;2023-05-07T01:23:51;1.20;;;1.10;;
20814;SDS011;10568;48.176;16.316;2023-05-07T01:26:17;1.00;;;0.90;;
20814;SDS011;10568;48.176;16.316;2023-05-07T01:28:44;1.90;;;1.00;;
20814;SDS011;10568;48.176;16.316;2023-05-07T01:31:10;1.07;;;0.97;;
20814;SDS011;10568;48.176;16.316;2023-05-07T01:33:38;1.13;;;0.93;;
20814;SDS011;10568;48.176;16.316;2023-05-07T01:36:06;1.10;;;0.90;;
20814;SDS011;10568;48.176;16.316;2023-05-07T01:38:34;1.00;;;0.80;;
20814;SDS011;10568;48.176;16.316;2023-05-07T01:41:01;1.27;;;0.90;;
20814;SDS011;10568;48.176;16.316;2023-05-07T01:43:28;1.63;;;1.10;;
20814;SDS011;10568;48.176;16.316;2023-05-07T01:45:55;0.83;;;0.83;;
20814;SDS011;10568;48.176;16.316;2023-05-07T01:48:22;0.80;;;0.80;;
20814;SDS011;10568;48.176;16.316;2023-05-07T01:50:49;1.60;;;1.20;;
20814;SDS011;10568;48.176;16.316;2023-05-07T01:53:16;1.13;;;1.03;;
20814;SDS011;10568;48.176;16.316;2023-05-07T01:55:42;0.90;;;0.80;;
20814;SDS011;10568;48.176;16.316;2023-05-07T01:58:08;1.37;;;1.17;;
20814;SDS011;10568;48.176;16.316;2023-05-07T02:00:34;1.33;;;1.00;;
20814;SDS011;10568;48.176;16.316;2023-05-07T02:02:59;1.20;;;1.00;;
20814;SDS011;10568;48.176;16.316;2023-05-07T02:05:25;1.70;;;1.20;;
20814;SDS011;10568;48.176;16.316;2023-05-07T02:08:07;0.90;;;0.90;;
20814;SDS011;10568;48.176;16.316;2023-05-07T02:10:32;1.20;;;1.10;;
20814;SDS011;10568;48.176;16.316;2023-05-07T02:12:58;1.10;;;0.80;;
20814;SDS011;10568;48.176;16.316;2023-05-07T02:15:26;1.30;;;1.13;;
20814;SDS011;10568;48.176;16.316;2023-05-07T02:18:02;1.70;;;1.13;;
20814;SDS011;10568;48.176;16.316;2023-05-07T02:20:30;1.30;;;1.00;;
20814;SDS011;10568;48.176;16.316;2023-05-07T02:22:56;1.20;;;0.97;;
20814;SDS011;10568;48.176;16.316;2023-05-07T02:25:21;1.20;;;1.10;;
20814;SDS011;10568;48.176;16.316;2023-05-07T02:27:47;1.40;;;1.10;;
20814;SDS011;10568;48.176;16.316;2023-05-07T02:30:13;1.43;;;1.20;;
20814;SDS011;10568;48.176;16.316;2023-05-07T02:32:40;1.20;;;1.10;;
20814;SDS011;10568;48.176;16.316;2023-05-07T02:35:06;1.43;;;1.10;;
20814;SDS011;10568;48.176;16.316;2023-05-07T02:37:31;1.23;;;1.10;;
20814;SDS011;10568;48.176;16.316;2023-05-07T02:39:57;1.57;;;1.30;;
20814;SDS011;10568;48.176;16.316;2023-05-07T02:42:23;1.73;;;1.43;;
20814;SDS011;10568;48.176;16.316;2023-05-07T02:44:49;2.30;;;1.10;;
20814;SDS011;10568;48.176;16.316;2023-05-07T02:47:15;2.23;;;1.50;;
20814;SDS011;10568;48.176;16.316;2023-05-07T02:49:41;1.37;;;1.23;;
20814;SDS011;10568;48.176;16.316;2023-05-07T02:52:07;1.33;;;1.20;;
20814;SDS011;10568;48.176;16.316;2023-05-07T02:54:33;1.33;;;1.17;;
20814;SDS011;10568;48.176;16.316;2023-05-07T02:56:58;1.77;;;1.50;;
20814;SDS011;10568;48.176;16.316;2023-05-07T02:59:26;1.43;;;1.30;;
20814;SDS011;10568;48.176;16.316;2023-05-07T03:01:51;3.53;;;1.63;;
20814;SDS011;10568;48.176;16.316;2023-05-07T03:04:17;1.43;;;1.17;;
20814;SDS011;10568;48.176;16.316;2023-05-07T03:06:43;1.60;;;1.50;;
20814;SDS011;10568;48.176;16.316;2023-05-07T03:09:09;2.10;;;1.50;;
20814;SDS011;10568;48.176;16.316;2023-05-07T03:11:34;1.43;;;1.33;;
20814;SDS011;10568;48.176;16.316;2023-05-07T03:14:01;1.40;;;1.30;;
20814;SDS011;10568;48.176;16.316;2023-05-07T03:16:27;2.40;;;1.57;;
20814;SDS011;10568;48.176;16.316;2023-05-07T03:18:53;1.80;;;1.57;;
20814;SDS011;10568;48.176;16.316;2023-05-07T03:21:18;2.23;;;1.73;;
20814;SDS011;10568;48.176;16.316;2023-05-07T03:23:44;2.10;;;1.80;;
20814;SDS011;10568;48.176;16.316;2023-05-07T03:26:10;1.93;;;1.63;;
20814;SDS011;10568;48.176;16.316;2023-05-07T03:28:36;4.57;;;2.20;;
20814;SDS011;10568;48.176;16.316;2023-05-07T03:34:24;2.73;;;1.83;;
20814;SDS011;10568;48.176;16.316;2023-05-07T03:36:50;2.13;;;1.73;;
20814;SDS011;10568;48.176;16.316;2023-05-07T03:39:16;2.57;;;2.00;;
20814;SDS011;10568;48.176;16.316;2023-05-07T03:41:42;3.07;;;2.20;;
20814;SDS011;10568;48.176;16.316;2023-05-07T03:44:07;2.10;;;1.90;;
20814;SDS011;10568;48.176;16.316;2023-05-07T03:46:33;2.50;;;1.97;;
20814;SDS011;10568;48.176;16.316;2023-05-07T03:49:00;2.57;;;2.10;;
20814;SDS011;10568;48.176;16.316;2023-05-07T03:51:25;2.77;;;2.10;;
20814;SDS011;10568;48.176;16.316;2023-05-07T03:53:52;3.97;;;2.57;;
20814;SDS011;10568;48.176;16.316;2023-05-07T03:56:18;2.40;;;2.20;;
20814;SDS011;10568;48.176;16.316;2023-05-07T03:58:44;3.43;;;2.67;;
20814;SDS011;10568;48.176;16.316;2023-05-07T04:01:10;6.13;;;2.70;;
20814;SDS011;10568;48.176;16.316;2023-05-07T04:03:37;4.30;;;2.50;;
20814;SDS011;10568;48.176;16.316;2023-05-07T04:06:02;3.77;;;3.07;;
20814;SDS011;10568;48.176;16.316;2023-05-07T04:08:28;3.87;;;2.80;;
20814;SDS011;10568;48.176;16.316;2023-05-07T04:10:57;4.33;;;3.10;;
20814;SDS011;10568;48.176;16.316;2023-05-07T04:13:24;4.43;;;2.80;;
20814;SDS011;10568;48.176;16.316;2023-05-07T04:15:51;3.83;;;3.00;;
20814;SDS011;10568;48.176;16.316;2023-05-07T04:18:17;5.07;;;3.27;;
20814;SDS011;10568;48.176;16.316;2023-05-07T04:20:43;5.23;;;2.67;;
20814;SDS011;10568;48.176;16.316;2023-05-07T04:23:08;3.30;;;2.77;;
20814;SDS011;10568;48.176;16.316;2023-05-07T04:25:34;4.97;;;2.80;;
20814;SDS011;10568;48.176;16.316;2023-05-07T04:28:00;5.03;;;3.37;;
20814;SDS011;10568;48.176;16.316;2023-05-07T04:30:26;3.93;;;3.40;;
20814;SDS011;10568;48.176;16.316;2023-05-07T04:32:52;4.87;;;3.43;;
20814;SDS011;10568;48.176;16.316;2023-05-07T04:35:18;4.40;;;3.23;;
20814;SDS011;10568;48.176;16.316;2023-05-07T04:37:44;6.10;;;3.70;;
20814;SDS011;10568;48.176;16.316;2023-05-07T04:40:10;6.00;;;3.80;;
20814;SDS011;10568;48.176;16.316;2023-05-07T04:42:35;6.13;;;4.10;;
20814;SDS011;10568;48.176;16.316;2023-05-07T04:45:01;7.43;;;4.20;;
20814;SDS011;10568;48.176;16.316;2023-05-07T04:47:28;5.53;;;3.80;;
20814;SDS011;10568;48.176;16.316;2023-05-07T04:49:54;5.67;;;3.40;;
20814;SDS011;10568;48.176;16.316;2023-05-07T04:52:19;4.97;;;3.60;;
20814;SDS011;10568;48.176;16.316;2023-05-07T04:54:45;5.27;;;3.67;;
20814;SDS011;10568;48.176;16.316;2023-05-07T04:57:11;5.47;;;4.03;;
20814;SDS011;10568;48.176;16.316;2023-05-07T04:59:37;5.93;;;3.80;;
20814;SDS011;10568;48.176;16.316;2023-05-07T05:02:03;5.20;;;3.80;;
20814;SDS011;10568;48.176;16.316;2023-05-07T05:04:29;5.67;;;3.60;;
20814;SDS011;10568;48.176;16.316;2023-05-07T05:06:55;6.30;;;3.80;;
20814;SDS011;10568;48.176;16.316;2023-05-07T05:09:21;6.20;;;4.20;;
20814;SDS011;10568;48.176;16.316;2023-05-07T05:11:47;6.43;;;4.47;;
20814;SDS011;10568;48.176;16.316;2023-05-07T05:14:13;7.87;;;5.03;;
20814;SDS011;10568;48.176;16.316;2023-05-07T05:16:39;7.20;;;5.73;;
20814;SDS011;10568;48.176;16.316;2023-05-07T05:19:05;8.13;;;5.57;;
20814;SDS011;10568;48.176;16.316;2023-05-07T05:21:31;10.37;;;5.30;;
20814;SDS011;10568;48.176;16.316;2023-05-07T05:23:58;8.87;;;6.57;;
20814;SDS011;10568;48.176;16.316;2023-05-07T05:26:24;9.50;;;6.20;;
20814;SDS011;10568;48.176;16.316;2023-05-07T05:28:49;10.17;;;6.47;;
20814;SDS011;10568;48.176;16.316;2023-05-07T05:31:16;9.87;;;6.90;;
20814;SDS011;10568;48.176;16.316;2023-05-07T05:33:41;11.27;;;6.77;;
20814;SDS011;10568;48.176;16.316;2023-05-07T05:36:10;12.67;;;7.03;;
20814;SDS011;10568;48.176;16.316;2023-05-07T05:38:38;11.97;;;7.13;;
20814;SDS011;10568;48.176;16.316;2023-05-07T05:41:04;12.13;;;8.00;;
20814;SDS011;10568;48.176;16.316;2023-05-07T05:43:30;10.70;;;6.93;;
20814;SDS011;10568;48.176;16.316;2023-05-07T05:45:56;13.00;;;7.80;;
20814;SDS011;10568;48.176;16.316;2023-05-07T05:48:23;12.03;;;7.80;;
20814;SDS011;10568;48.176;16.316;2023-05-07T05:54:10;13.07;;;7.90;;
20814;SDS011;10568;48.176;16.316;2023-05-07T05:56:36;14.33;;;8.57;;
20814;SDS011;10568;48.176;16.316;2023-05-07T05:59:03;13.70;;;9.03;;
20814;SDS011;10568;48.176;16.316;2023-05-07T06:01:29;13.63;;;8.20;;
20814;SDS011;10568;48.176;16.316;2023-05-07T06:03:56;13.83;;;9.00;;
20814;SDS011;10568;48.176;16.316;2023-05-07T06:06:21;13.07;;;8.53;;
20814;SDS011;10568;48.176;16.316;2023-05-07T06:08:47;15.37;;;9.90;;
20814;SDS011;10568;48.176;16.316;2023-05-07T06:11:13;15.80;;;10.17;;
20814;SDS011;10568;48.176;16.316;2023-05-07T06:13:39;16.27;;;9.93;;
20814;SDS011;10568;48.176;16.316;2023-05-07T06:16:05;16.77;;;10.40;;
20814;SDS011;10568;48.176;16.316;2023-05-07T06:18:31;16.00;;;10.40;;
20814;SDS011;10568;48.176;16.316;2023-05-07T06:20:56;16.00;;;10.27;;
20814;SDS011;10568;48.176;16.316;2023-05-07T06:23:22;16.27;;;10.37;;
20814;SDS011;10568;48.176;16.316;2023-05-07T06:25:51;15.37;;;10.23;;
20814;SDS011;10568;48.176;16.316;2023-05-07T06:28:17;14.50;;;9.97;;
20814;SDS011;10568;48.176;16.316;2023-05-07T06:30:43;13.83;;;10.17;;
20814;SDS011;10568;48.176;16.316;2023-05-07T06:33:10;14.73;;;9.83;;
20814;SDS011;10568;48.176;16.316;2023-05-07T06:35:35;17.33;;;10.43;;
20814;SDS011;10568;48.176;16.316;2023-05-07T06:38:01;13.90;;;9.60;;
20814;SDS011;10568;48.176;16.316;2023-05-07T06:40:27;16.27;;;10.47;;
20814;SDS011;10568;48.176;16.316;2023-05-07T06:42:53;14.97;;;9.70;;
20814;SDS011;10568;48.176;16.316;2023-05-07T06:45:21;16.77;;;10.57;;
20814;SDS011;10568;48.176;16.316;2023-05-07T06:47:47;13.50;;;9.17;;
20814;SDS011;10568;48.176;16.316;2023-05-07T06:50:13;16.57;;;10.83;;
20814;SDS011;10568;48.176;16.316;2023-05-07T06:52:41;14.73;;;10.17;;
20814;SDS011;10568;48.176;16.316;2023-05-07T06:55:07;13.30;;;9.77;;
20814;SDS011;10568;48.176;16.316;2023-05-07T06:57:34;14.77;;;9.97;;
20814;SDS011;10568;48.176;16.316;2023-05-07T07:00:00;15.43;;;9.93;;
20814;SDS011;10568;48.176;16.316;2023-05-07T07:02:25;15.60;;;10.17;;
20814;SDS011;10568;48.176;16.316;2023-05-07T07:04:51;14.27;;;9.27;;
20814;SDS011;10568;48.176;16.316;2023-05-07T07:07:17;14.07;;;9.70;;
20814;SDS011;10568;48.176;16.316;2023-05-07T07:09:43;12.63;;;8.93;;
20814;SDS011;10568;48.176;16.316;2023-05-07T07:12:08;14.20;;;9.03;;
20814;SDS011;10568;48.176;16.316;2023-05-07T07:14:34;14.40;;;8.97;;
20814;SDS011;10568;48.176;16.316;2023-05-07T07:17:00;16.23;;;9.60;;
20814;SDS011;10568;48.176;16.316;2023-05-07T07:19:26;14.47;;;10.07;;
20814;SDS011;10568;48.176;16.316;2023-05-07T07:21:51;15.47;;;9.10;;
20814;SDS011;10568;48.176;16.316;2023-05-07T07:24:17;13.80;;;9.93;;
20814;SDS011;10568;48.176;16.316;2023-05-07T07:26:46;13.40;;;9.53;;
20814;SDS011;10568;48.176;16.316;2023-05-07T07:29:12;12.67;;;9.57;;
20814;SDS011;10568;48.176;16.316;2023-05-07T07:31:38;16.43;;;9.13;;
20814;SDS011;10568;48.176;16.316;2023-05-07T07:34:04;13.60;;;10.03;;
20814;SDS011;10568;48.176;16.316;2023-05-07T07:36:30;13.63;;;9.13;;
20814;SDS011;10568;48.176;16.316;2023-05-07T07:38:56;12.00;;;8.80;;
20814;SDS011;10568;48.176;16.316;2023-05-07T07:41:21;12.40;;;9.00;;
20814;SDS011;10568;48.176;16.316;2023-05-07T07:43:47;11.67;;;8.47;;
20814;SDS011;10568;48.176;16.316;2023-05-07T07:46:13;12.17;;;8.80;;
20814;SDS011;10568;48.176;16.316;2023-05-07T07:48:39;14.67;;;8.33;;
20814;SDS011;10568;48.176;16.316;2023-05-07T07:51:05;11.63;;;7.20;;
20814;SDS011;10568;48.176;16.316;2023-05-07T07:53:31;12.80;;;7.67;;
20814;SDS011;10568;48.176;16.316;2023-05-07T07:55:57;11.03;;;7.10;;
20814;SDS011;10568;48.176;16.316;2023-05-07T07:58:23;10.23;;;7.00;;
20814;SDS011;10568;48.176;16.316;2023-05-07T08:00:49;10.77;;;7.53;;
20814;SDS011;10568;48.176;16.316;2023-05-07T08:03:16;11.53;;;7.83;;
20814;SDS011;10568;48.176;16.316;2023-05-07T08:05:42;10.90;;;8.13;;
20814;SDS011;10568;48.176;16.316;2023-05-07T08:08:08;10.47;;;7.23;;
20814;SDS011;10568;48.176;16.316;2023-05-07T08:10:34;11.17;;;7.33;;
20814;SDS011;10568;48.176;16.316;2023-05-07T08:13:03;10.10;;;7.57;;
20814;SDS011;10568;48.176;16.316;2023-05-07T08:15:29;9.40;;;7.23;;
20814;SDS011;10568;48.176;16.316;2023-05-07T08:17:55;9.00;;;6.17;;
20814;SDS011;10568;48.176;16.316;2023-05-07T08:20:25;12.93;;;7.77;;
20814;SDS011;10568;48.176;16.316;2023-05-07T08:22:51;11.47;;;7.73;;
20814;SDS011;10568;48.176;16.316;2023-05-07T08:25:17;10.97;;;7.90;;
20814;SDS011;10568;48.176;16.316;2023-05-07T08:27:43;12.70;;;7.40;;
20814;SDS011;10568;48.176;16.316;2023-05-07T08:30:10;10.23;;;7.27;;
20814;SDS011;10568;48.176;16.316;2023-05-07T08:32:36;10.37;;;7.33;;
20814;SDS011;10568;48.176;16.316;2023-05-07T08:35:02;11.23;;;7.83;;
20814;SDS011;10568;48.176;16.316;2023-05-07T08:37:28;10.53;;;7.43;;
20814;SDS011;10568;48.176;16.316;2023-05-07T08:39:54;10.90;;;7.43;;
20814;SDS011;10568;48.176;16.316;2023-05-07T08:42:19;10.37;;;7.77;;
20814;SDS011;10568;48.176;16.316;2023-05-07T08:44:48;11.47;;;7.83;;
20814;SDS011;10568;48.176;16.316;2023-05-07T08:47:18;12.50;;;7.67;;
20814;SDS011;10568;48.176;16.316;2023-05-07T08:49:45;10.13;;;7.10;;
20814;SDS011;10568;48.176;16.316;2023-05-07T08:52:11;11.70;;;8.03;;
20814;SDS011;10568;48.176;16.316;2023-05-07T08:54:37;12.27;;;8.03;;
20814;SDS011;10568;48.176;16.316;2023-05-07T08:57:04;11.43;;;7.13;;
20814;SDS011;10568;48.176;16.316;2023-05-07T08:59:30;10.43;;;6.97;;
20814;SDS011;10568;48.176;16.316;2023-05-07T09:01:56;10.93;;;7.60;;
20814;SDS011;10568;48.176;16.316;2023-05-07T09:04:22;10.03;;;6.90;;
20814;SDS011;10568;48.176;16.316;2023-05-07T09:07:00;8.90;;;6.37;;
20814;SDS011;10568;48.176;16.316;2023-05-07T09:09:32;9.73;;;6.50;;
20814;SDS011;10568;48.176;16.316;2023-05-07T09:11:58;10.67;;;6.63;;
20814;SDS011;10568;48.176;16.316;2023-05-07T09:14:25;9.90;;;6.95;;
20814;SDS011;10568;48.176;16.316;2023-05-07T09:16:53;9.80;;;7.50;;
20814;SDS011;10568;48.176;16.316;2023-05-07T09:19:23;10.52;;;6.75;;
20814;SDS011;10568;48.176;16.316;2023-05-07T09:21:49;10.60;;;6.70;;
20814;SDS011;10568;48.176;16.316;2023-05-07T09:24:22;9.73;;;6.55;;
20814;SDS011;10568;48.176;16.316;2023-05-07T09:26:48;10.05;;;6.85;;
20814;SDS011;10568;48.176;16.316;2023-05-07T09:29:15;9.23;;;6.45;;
20814;SDS011;10568;48.176;16.316;2023-05-07T09:31:42;10.68;;;7.80;;
20814;SDS011;10568;48.176;16.316;2023-05-07T09:34:08;10.73;;;6.85;;
20814;SDS011;10568;48.176;16.316;2023-05-07T09:36:33;9.75;;;7.00;;
20814;SDS011;10568;48.176;16.316;2023-05-07T09:39:00;10.20;;;6.70;;
20814;SDS011;10568;48.176;16.316;2023-05-07T09:41:26;9.95;;;7.20;;
20814;SDS011;10568;48.176;16.316;2023-05-07T09:43:54;11.93;;;7.13;;
20814;SDS011;10568;48.176;16.316;2023-05-07T09:46:22;9.80;;;7.05;;
20814;SDS011;10568;48.176;16.316;2023-05-07T09:48:54;10.85;;;6.80;;
20814;SDS011;10568;48.176;16.316;2023-05-07T09:51:30;7.85;;;5.28;;
20814;SDS011;10568;48.176;16.316;2023-05-07T09:54:15;9.48;;;6.32;;
20814;SDS011;10568;48.176;16.316;2023-05-07T09:56:45;9.48;;;6.32;;
20814;SDS011;10568;48.176;16.316;2023-05-07T09:59:13;9.35;;;6.00;;
20814;SDS011;10568;48.176;16.316;2023-05-07T10:01:41;7.68;;;5.95;;
20814;SDS011;10568;48.176;16.316;2023-05-07T10:04:08;9.20;;;5.38;;
20814;SDS011;10568;48.176;16.316;2023-05-07T10:06:35;8.18;;;6.07;;
20814;SDS011;10568;48.176;16.316;2023-05-07T10:09:02;7.93;;;5.63;;
20814;SDS011;10568;48.176;16.316;2023-05-07T10:11:30;7.45;;;5.22;;
20814;SDS011;10568;48.176;16.316;2023-05-07T10:13:58;8.52;;;5.78;;
20814;SDS011;10568;48.176;16.316;2023-05-07T10:16:24;8.65;;;5.18;;
20814;SDS011;10568;48.176;16.316;2023-05-07T10:18:52;6.88;;;5.28;;
20814;SDS011;10568;48.176;16.316;2023-05-07T10:21:20;7.47;;;5.13;;
20814;SDS011;10568;48.176;16.316;2023-05-07T10:23:53;7.88;;;5.60;;
20814;SDS011;10568;48.176;16.316;2023-05-07T10:26:27;6.97;;;5.38;;
20814;SDS011;10568;48.176;16.316;2023-05-07T10:28:58;9.48;;;5.85;;
20814;SDS011;10568;48.176;16.316;2023-05-07T10:34:17;7.45;;;5.18;;
20814;SDS011;10568;48.176;16.316;2023-05-07T10:36:48;9.50;;;5.57;;
20814;SDS011;10568;48.176;16.316;2023-05-07T10:39:15;7.32;;;5.85;;
20814;SDS011;10568;48.176;16.316;2023-05-07T10:41:41;7.15;;;5.10;;
20814;SDS011;10568;48.176;16.316;2023-05-07T10:44:07;8.23;;;5.70;;
20814;SDS011;10568;48.176;16.316;2023-05-07T10:46:33;7.70;;;5.38;;
20814;SDS011;10568;48.176;16.316;2023-05-07T10:51:27;8.63;;;4.97;;
20814;SDS011;10568;48.176;16.316;2023-05-07T10:56:41;8.55;;;5.50;;
20814;SDS011;10568;48.176;16.316;2023-05-07T11:02:04;7.50;;;5.40;;
20814;SDS011;10568;48.176;16.316;2023-05-07T11:04:34;8.80;;;5.68;;
20814;SDS011;10568;48.176;16.316;2023-05-07T11:15:05;6.53;;;5.47;;
20814;SDS011;10568;48.176;16.316;2023-05-07T11:17:53;7.38;;;5.07;;
20814;SDS011;10568;48.176;16.316;2023-05-07T11:20:44;6.43;;;5.38;;
20814;SDS011;10568;48.176;16.316;2023-05-07T11:26:06;7.85;;;5.78;;
20814;SDS011;10568;48.176;16.316;2023-05-07T11:28:42;8.10;;;5.30;;
20814;SDS011;10568;48.176;16.316;2023-05-07T11:31:09;7.20;;;5.45;;
20814;SDS011;10568;48.176;16.316;2023-05-07T11:33:35;6.45;;;4.88;;
20814;SDS011;10568;48.176;16.316;2023-05-07T11:36:03;7.30;;;4.93;;
20814;SDS011;10568;48.176;16.316;2023-05-07T11:38:30;8.20;;;5.70;;
20814;SDS011;10568;48.176;16.316;2023-05-07T11:40:59;6.22;;;5.22;;
20814;SDS011;10568;48.176;16.316;2023-05-07T11:43:29;6.40;;;4.85;;
20814;SDS011;10568;48.176;16.316;2023-05-07T11:46:07;5.72;;;4.80;;
20814;SDS011;10568;48.176;16.316;2023-05-07T11:48:35;6.35;;;4.85;;
20814;SDS011;10568;48.176;16.316;2023-05-07T11:51:02;6.72;;;4.60;;
20814;SDS011;10568;48.176;16.316;2023-05-07T11:53:37;6.75;;;5.03;;
20814;SDS011;10568;48.176;16.316;2023-05-07T11:56:10;7.10;;;4.80;;
20814;SDS011;10568;48.176;16.316;2023-05-07T11:58:52;5.53;;;4.40;;
20814;SDS011;10568;48.176;16.316;2023-05-07T12:01:18;5.82;;;4.38;;
20814;SDS011;10568;48.176;16.316;2023-05-07T12:03:44;6.95;;;4.57;;
20814;SDS011;10568;48.176;16.316;2023-05-07T12:06:11;6.18;;;4.50;;
20814;SDS011;10568;48.176;16.316;2023-05-07T12:11:36;7.68;;;4.63;;
20814;SDS011;10568;48.176;16.316;2023-05-07T12:14:04;5.20;;;4.07;;
20814;SDS011;10568;48.176;16.316;2023-05-07T12:16:30;5.78;;;3.97;;
20814;SDS011;10568;48.176;16.316;2023-05-07T12:18:58;5.82;;;4.55;;
20814;SDS011;10568;48.176;16.316;2023-05-07T12:21:25;6.45;;;4.38;;
20814;SDS011;10568;48.176;16.316;2023-05-07T12:23:51;6.53;;;4.43;;
20814;SDS011;10568;48.176;16.316;2023-05-07T12:26:19;7.13;;;4.88;;
20814;SDS011;10568;48.176;16.316;2023-05-07T12:28:46;5.47;;;4.20;;
20814;SDS011;10568;48.176;16.316;2023-05-07T12:31:12;4.38;;;3.75;;
20814;SDS011;10568;48.176;16.316;2023-05-07T12:33:39;5.00;;;4.03;;
20814;SDS011;10568;48.176;16.316;2023-05-07T12:36:06;4.90;;;3.80;;
20814;SDS011;10568;48.176;16.316;2023-05-07T12:38:38;5.80;;;4.18;;
20814;SDS011;10568;48.176;16.316;2023-05-07T12:41:06;5.20;;;3.92;;
20814;SDS011;10568;48.176;16.316;2023-05-07T12:43:33;5.72;;;3.97;;
20814;SDS011;10568;48.176;16.316;2023-05-07T12:46:00;5.43;;;4.10;;
20814;SDS011;10568;48.176;16.316;2023-05-07T12:48:28;6.10;;;4.32;;
20814;SDS011;10568;48.176;16.316;2023-05-07T12:50:54;5.18;;;4.10;;
20814;SDS011;10568;48.176;16.316;2023-05-07T12:53:22;6.18;;;4.10;;
20814;SDS011;10568;48.176;16.316;2023-05-07T12:55:50;4.60;;;3.90;;
20814;SDS011;10568;48.176;16.316;2023-05-07T12:58:18;6.25;;;4.38;;
20814;SDS011;10568;48.176;16.316;2023-05-07T13:00:45;5.68;;;4.28;;
20814;SDS011;10568;48.176;16.316;2023-05-07T13:03:24;4.80;;;3.92;;
20814;SDS011;10568;48.176;16.316;2023-05-07T13:05:58;6.00;;;4.30;;
20814;SDS011;10568;48.176;16.316;2023-05-07T13:08:33;5.88;;;4.60;;
20814;SDS011;10568;48.176;16.316;2023-05-07T13:11:01;6.45;;;3.63;;
20814;SDS011;10568;48.176;16.316;2023-05-07T13:13:31;5.57;;;4.30;;
20814;SDS011;10568;48.176;16.316;2023-05-07T13:16:02;4.93;;;3.67;;
20814;SDS011;10568;48.176;16.316;2023-05-07T13:18:29;4.40;;;3.05;;
20814;SDS011;10568;48.176;16.316;2023-05-07T13:20:56;5.32;;;3.10;;
20814;SDS011;10568;48.176;16.316;2023-05-07T13:23:22;4.80;;;3.20;;
20814;SDS011;10568;48.176;16.316;2023-05-07T13:26:03;5.15;;;3.90;;
20814;SDS011;10568;48.176;16.316;2023-05-07T13:28:28;5.20;;;3.75;;
20814;SDS011;10568;48.176;16.316;2023-05-07T13:30:54;3.88;;;3.47;;
20814;SDS011;10568;48.176;16.316;2023-05-07T13:33:20;5.25;;;3.70;;
20814;SDS011;10568;48.176;16.316;2023-05-07T13:35:46;3.83;;;3.22;;
20814;SDS011;10568;48.176;16.316;2023-05-07T13:38:12;4.78;;;3.05;;
20814;SDS011;10568;48.176;16.316;2023-05-07T13:40:37;4.80;;;3.45;;
20814;SDS011;10568;48.176;16.316;2023-05-07T13:43:05;3.50;;;2.92;;
20814;SDS011;10568;48.176;16.316;2023-05-07T13:45:31;4.28;;;3.22;;
20814;SDS011;10568;48.176;16.316;2023-05-07T13:47:57;4.18;;;3.00;;
20814;SDS011;10568;48.176;16.316;2023-05-07T13:50:23;4.70;;;3.42;;
20814;SDS011;10568;48.176;16.316;2023-05-07T13:52:49;4.18;;;3.13;;
20814;SDS011;10568;48.176;16.316;2023-05-07T13:55:18;4.15;;;3.22;;
20814;SDS011;10568;48.176;16.316;2023-05-07T13:57:54;4.25;;;3.33;;
20814;SDS011;10568;48.176;16.316;2023-05-07T14:00:24;5.32;;;3.40;;
20814;SDS011;10568;48.176;16.316;2023-05-07T14:02:51;5.32;;;3.50;;
20814;SDS011;10568;48.176;16.316;2023-05-07T14:05:17;3.22;;;2.63;;
20814;SDS011;10568;48.176;16.316;2023-05-07T14:07:44;5.18;;;3.03;;
20814;SDS011;10568;48.176;16.316;2023-05-07T14:10:10;3.85;;;3.13;;
20814;SDS011;10568;48.176;16.316;2023-05-07T14:12:36;4.95;;;2.90;;
20814;SDS011;10568;48.176;16.316;2023-05-07T14:15:02;4.88;;;2.80;;
20814;SDS011;10568;48.176;16.316;2023-05-07T14:17:28;4.82;;;3.17;;
20814;SDS011;10568;48.176;16.316;2023-05-07T14:19:54;3.65;;;2.75;;
20814;SDS011;10568;48.176;16.316;2023-05-07T14:22:21;8.55;;;3.38;;
20814;SDS011;10568;48.176;16.316;2023-05-07T14:24:48;3.42;;;2.78;;
20814;SDS011;10568;48.176;16.316;2023-05-07T14:30:24;4.50;;;2.88;;
20814;SDS011;10568;48.176;16.316;2023-05-07T14:32:50;4.72;;;3.60;;
20814;SDS011;10568;48.176;16.316;2023-05-07T14:35:16;3.53;;;2.80;;
20814;SDS011;10568;48.176;16.316;2023-05-07T14:37:42;4.28;;;2.72;;
20814;SDS011;10568;48.176;16.316;2023-05-07T14:40:08;4.63;;;2.85;;
20814;SDS011;10568;48.176;16.316;2023-05-07T14:42:35;3.80;;;2.83;;
20814;SDS011;10568;48.176;16.316;2023-05-07T14:45:01;3.92;;;2.53;;
20814;SDS011;10568;48.176;16.316;2023-05-07T14:47:27;3.47;;;2.65;;
20814;SDS011;10568;48.176;16.316;2023-05-07T14:49:53;3.10;;;2.72;;
20814;SDS011;10568;48.176;16.316;2023-05-07T14:52:20;3.10;;;2.35;;
20814;SDS011;10568;48.176;16.316;2023-05-07T14:54:45;2.78;;;2.15;;
20814;SDS011;10568;48.176;16.316;2023-05-07T14:57:13;3.30;;;2.50;;
20814;SDS011;10568;48.176;16.316;2023-05-07T14:59:41;2.85;;;2.53;;
20814;SDS011;10568;48.176;16.316;2023-05-07T15:02:07;2.88;;;2.17;;
20814;SDS011;10568;48.176;16.316;2023-05-07T15:04:34;2.45;;;1.90;;